sensor_id;sensor_type;location;lat;lon;timestamp;temperature;humidity
56771;DHT22;42641;59.794;17.616;2023-01-09T00:00:30;4.70;99.90
56771;DHT22;42641;59.794;17.616;2023-01-09T00:02:57;4.70;99.90
56771;DHT22;42641;59.794;17.616;2023-01-09T00:05:23;4.70;99.90
56771;DHT22;42641;59.794;17.616;2023-01-09T00:07:50;4.70;99.90
56771;DHT22;42641;59.794;17.616;2023-01-09T00:10:16;4.70;99.90
56771;DHT22;42641;59.794;17.616;2023-01-09T00:12:43;4.70;99.90
56771;DHT22;42641;59.794;17.616;2023-01-09T00:15:10;4.70;99.90
56771;DHT22;42641;59.794;17.616;2023-01-09T00:17:36;4.70;99.90
56771;DHT22;42641;59.794;17.616;2023-01-09T00:20:04;4.70;99.90
56771;DHT22;42641;59.794;17.616;2023-01-09T00:22:31;4.70;99.90
56771;DHT22;42641;59.794;17.616;2023-01-09T00:24:58;4.70;99.90
56771;DHT22;42641;59.794;17.616;2023-01-09T00:27:24;4.60;99.90
56771;DHT22;42641;59.794;17.616;2023-01-09T00:29:51;4.60;99.90
56771;DHT22;42641;59.794;17.616;2023-01-09T00:32:17;4.60;99.90
56771;DHT22;42641;59.794;17.616;2023-01-09T00:34:46;4.70;99.90
56771;DHT22;42641;59.794;17.616;2023-01-09T00:37:12;4.60;99.90
56771;DHT22;42641;59.794;17.616;2023-01-09T00:39:39;4.70;99.90
56771;DHT22;42641;59.794;17.616;2023-01-09T00:42:08;4.60;99.90
56771;DHT22;42641;59.794;17.616;2023-01-09T00:44:38;4.70;99.90
56771;DHT22;42641;59.794;17.616;2023-01-09T00:47:14;4.60;99.90
56771;DHT22;42641;59.794;17.616;2023-01-09T00:49:42;4.70;99.90
56771;DHT22;42641;59.794;17.616;2023-01-09T00:52:12;4.60;99.90
56771;DHT22;42641;59.794;17.616;2023-01-09T00:54:39;4.60;99.90
56771;DHT22;42641;59.794;17.616;2023-01-09T00:57:09;4.60;99.90
56771;DHT22;42641;59.794;17.616;2023-01-09T00:59:36;4.60;99.90
56771;DHT22;42641;59.794;17.616;2023-01-09T01:02:03;4.60;99.90
56771;DHT22;42641;59.794;17.616;2023-01-09T01:04:29;4.60;99.90
56771;DHT22;42641;59.794;17.616;2023-01-09T01:07:14;4.60;99.90
56771;DHT22;42641;59.794;17.616;2023-01-09T01:09:59;4.60;99.90
56771;DHT22;42641;59.794;17.616;2023-01-09T01:12:26;4.60;99.90
56771;DHT22;42641;59.794;17.616;2023-01-09T01:14:52;4.60;99.90
56771;DHT22;42641;59.794;17.616;2023-01-09T01:17:18;4.60;99.90
56771;DHT22;42641;59.794;17.616;2023-01-09T01:19:45;4.70;99.90
56771;DHT22;42641;59.794;17.616;2023-01-09T01:22:11;4.60;99.90
56771;DHT22;42641;59.794;17.616;2023-01-09T01:24:38;4.60;99.90
56771;DHT22;42641;59.794;17.616;2023-01-09T01:27:04;4.60;99.90
56771;DHT22;42641;59.794;17.616;2023-01-09T01:29:31;4.60;99.90
56771;DHT22;42641;59.794;17.616;2023-01-09T01:31:57;4.60;99.90
56771;DHT22;42641;59.794;17.616;2023-01-09T01:34:24;4.60;99.90
56771;DHT22;42641;59.794;17.616;2023-01-09T01:36:50;4.60;99.90
56771;DHT22;42641;59.794;17.616;2023-01-09T01:39:16;4.60;99.90
56771;DHT22;42641;59.794;17.616;2023-01-09T01:41:43;4.60;99.90
56771;DHT22;42641;59.794;17.616;2023-01-09T01:47:14;4.60;99.90
56771;DHT22;42641;59.794;17.616;2023-01-09T01:49:42;4.50;99.90
56771;DHT22;42641;59.794;17.616;2023-01-09T01:52:09;4.60;99.90
56771;DHT22;42641;59.794;17.616;2023-01-09T01:54:36;4.60;99.90
56771;DHT22;42641;59.794;17.616;2023-01-09T01:57:03;4.60;99.90
56771;DHT22;42641;59.794;17.616;2023-01-09T01:59:36;4.60;99.90
56771;DHT22;42641;59.794;17.616;2023-01-09T02:02:04;4.60;99.90
56771;DHT22;42641;59.794;17.616;2023-01-09T02:04:33;4.60;99.90
56771;DHT22;42641;59.794;17.616;2023-01-09T02:07:03;4.60;99.90
56771;DHT22;42641;59.794;17.616;2023-01-09T02:09:30;4.60;99.90
56771;DHT22;42641;59.794;17.616;2023-01-09T02:11:57;4.60;99.90
56771;DHT22;42641;59.794;17.616;2023-01-09T02:14:28;4.70;99.90
56771;DHT22;42641;59.794;17.616;2023-01-09T02:20:21;4.70;99.90
56771;DHT22;42641;59.794;17.616;2023-01-09T02:22:59;4.70;99.90
56771;DHT22;42641;59.794;17.616;2023-01-09T02:33:53;4.80;99.90
56771;DHT22;42641;59.794;17.616;2023-01-09T02:36:39;4.80;99.90
56771;DHT22;42641;59.794;17.616;2023-01-09T02:39:41;4.80;99.90
56771;DHT22;42641;59.794;17.616;2023-01-09T02:42:16;4.80;99.90
56771;DHT22;42641;59.794;17.616;2023-01-09T02:44:44;4.80;99.90
56771;DHT22;42641;59.794;17.616;2023-01-09T02:49:47;4.90;99.90
56771;DHT22;42641;59.794;17.616;2023-01-09T02:58:06;4.90;99.90
56771;DHT22;42641;59.794;17.616;2023-01-09T03:03:17;4.90;99.90
56771;DHT22;42641;59.794;17.616;2023-01-09T03:05:51;4.90;99.90
56771;DHT22;42641;59.794;17.616;2023-01-09T03:08:22;4.90;99.90
56771;DHT22;42641;59.794;17.616;2023-01-09T03:11:04;4.90;99.90
56771;DHT22;42641;59.794;17.616;2023-01-09T03:13:38;5.00;99.90
56771;DHT22;42641;59.794;17.616;2023-01-09T03:16:08;5.00;99.90
56771;DHT22;42641;59.794;17.616;2023-01-09T03:18:37;5.00;99.90
56771;DHT22;42641;59.794;17.616;2023-01-09T03:21:05;5.00;99.90
56771;DHT22;42641;59.794;17.616;2023-01-09T03:23:52;5.00;99.90
56771;DHT22;42641;59.794;17.616;2023-01-09T03:26:19;5.00;99.90
56771;DHT22;42641;59.794;17.616;2023-01-09T03:28:46;5.00;99.90
56771;DHT22;42641;59.794;17.616;2023-01-09T03:31:13;5.00;99.90
56771;DHT22;42641;59.794;17.616;2023-01-09T03:33:40;5.10;99.90
56771;DHT22;42641;59.794;17.616;2023-01-09T03:36:08;5.10;99.90
56771;DHT22;42641;59.794;17.616;2023-01-09T03:38:35;5.10;99.90
56771;DHT22;42641;59.794;17.616;2023-01-09T03:41:02;5.20;99.90
56771;DHT22;42641;59.794;17.616;2023-01-09T03:43:29;5.20;99.90
56771;DHT22;42641;59.794;17.616;2023-01-09T03:45:56;5.20;99.90
56771;DHT22;42641;59.794;17.616;2023-01-09T03:48:23;5.10;99.90
56771;DHT22;42641;59.794;17.616;2023-01-09T03:50:50;5.10;99.90
56771;DHT22;42641;59.794;17.616;2023-01-09T03:53:18;5.00;99.90
56771;DHT22;42641;59.794;17.616;2023-01-09T03:55:46;4.90;99.90
56771;DHT22;42641;59.794;17.616;2023-01-09T03:58:14;4.90;99.90
56771;DHT22;42641;59.794;17.616;2023-01-09T04:00:41;4.90;99.90
56771;DHT22;42641;59.794;17.616;2023-01-09T04:03:08;5.00;99.90
56771;DHT22;42641;59.794;17.616;2023-01-09T04:05:35;5.10;99.90
56771;DHT22;42641;59.794;17.616;2023-01-09T04:08:01;5.10;99.90
56771;DHT22;42641;59.794;17.616;2023-01-09T04:10:27;5.10;99.90
56771;DHT22;42641;59.794;17.616;2023-01-09T04:12:54;5.10;99.90
56771;DHT22;42641;59.794;17.616;2023-01-09T04:15:21;5.10;99.90
56771;DHT22;42641;59.794;17.616;2023-01-09T04:17:48;5.10;99.90
56771;DHT22;42641;59.794;17.616;2023-01-09T04:20:14;5.10;99.90
56771;DHT22;42641;59.794;17.616;2023-01-09T04:22:41;5.10;99.90
56771;DHT22;42641;59.794;17.616;2023-01-09T04:25:08;5.10;99.90
56771;DHT22;42641;59.794;17.616;2023-01-09T04:27:34;5.10;99.90
56771;DHT22;42641;59.794;17.616;2023-01-09T04:30:01;5.10;99.90
56771;DHT22;42641;59.794;17.616;2023-01-09T04:32:27;5.10;99.90
56771;DHT22;42641;59.794;17.616;2023-01-09T04:34:54;5.10;99.90
56771;DHT22;42641;59.794;17.616;2023-01-09T04:37:21;5.00;99.90
56771;DHT22;42641;59.794;17.616;2023-01-09T04:39:49;5.00;99.90
56771;DHT22;42641;59.794;17.616;2023-01-09T04:42:16;4.90;99.90
56771;DHT22;42641;59.794;17.616;2023-01-09T04:44:42;4.90;99.90
56771;DHT22;42641;59.794;17.616;2023-01-09T04:47:09;4.90;99.90
56771;DHT22;42641;59.794;17.616;2023-01-09T04:49:35;4.90;99.90
56771;DHT22;42641;59.794;17.616;2023-01-09T04:52:01;4.80;99.90
56771;DHT22;42641;59.794;17.616;2023-01-09T04:54:28;4.80;99.90
56771;DHT22;42641;59.794;17.616;2023-01-09T04:56:54;4.80;99.90
56771;DHT22;42641;59.794;17.616;2023-01-09T04:59:20;4.90;99.90
56771;DHT22;42641;59.794;17.616;2023-01-09T05:01:47;4.90;99.90
56771;DHT22;42641;59.794;17.616;2023-01-09T05:04:13;4.90;99.90
56771;DHT22;42641;59.794;17.616;2023-01-09T05:06:39;4.90;99.90
56771;DHT22;42641;59.794;17.616;2023-01-09T05:09:06;5.00;99.90
56771;DHT22;42641;59.794;17.616;2023-01-09T05:11:32;5.00;99.90
56771;DHT22;42641;59.794;17.616;2023-01-09T05:13:59;5.00;99.90
56771;DHT22;42641;59.794;17.616;2023-01-09T05:16:25;4.90;99.90
56771;DHT22;42641;59.794;17.616;2023-01-09T05:18:51;4.90;99.90
56771;DHT22;42641;59.794;17.616;2023-01-09T05:21:22;4.80;99.90
56771;DHT22;42641;59.794;17.616;2023-01-09T05:23:49;4.90;99.90
56771;DHT22;42641;59.794;17.616;2023-01-09T05:26:16;4.90;99.90
56771;DHT22;42641;59.794;17.616;2023-01-09T05:28:42;4.90;99.90
56771;DHT22;42641;59.794;17.616;2023-01-09T05:31:08;5.00;99.90
56771;DHT22;42641;59.794;17.616;2023-01-09T05:33:35;5.00;99.90
56771;DHT22;42641;59.794;17.616;2023-01-09T05:36:01;5.00;99.90
56771;DHT22;42641;59.794;17.616;2023-01-09T05:38:28;5.00;99.90
56771;DHT22;42641;59.794;17.616;2023-01-09T05:40:54;5.00;99.90
56771;DHT22;42641;59.794;17.616;2023-01-09T05:43:21;5.10;99.90
56771;DHT22;42641;59.794;17.616;2023-01-09T05:45:47;5.10;99.90
56771;DHT22;42641;59.794;17.616;2023-01-09T05:48:13;5.10;99.90
56771;DHT22;42641;59.794;17.616;2023-01-09T05:50:40;5.10;99.90
56771;DHT22;42641;59.794;17.616;2023-01-09T05:53:06;5.10;99.90
56771;DHT22;42641;59.794;17.616;2023-01-09T05:55:33;5.00;99.90
56771;DHT22;42641;59.794;17.616;2023-01-09T05:57:59;5.00;99.90
56771;DHT22;42641;59.794;17.616;2023-01-09T06:00:26;5.10;99.90
56771;DHT22;42641;59.794;17.616;2023-01-09T06:02:52;5.10;99.90
56771;DHT22;42641;59.794;17.616;2023-01-09T06:05:18;5.20;99.90
56771;DHT22;42641;59.794;17.616;2023-01-09T06:07:45;5.10;99.90
56771;DHT22;42641;59.794;17.616;2023-01-09T06:10:12;5.10;99.90
56771;DHT22;42641;59.794;17.616;2023-01-09T06:12:40;5.10;99.90
56771;DHT22;42641;59.794;17.616;2023-01-09T06:15:07;5.20;99.90
56771;DHT22;42641;59.794;17.616;2023-01-09T06:17:34;5.20;99.90
56771;DHT22;42641;59.794;17.616;2023-01-09T06:20:00;5.10;99.90
56771;DHT22;42641;59.794;17.616;2023-01-09T06:22:27;5.10;99.90
56771;DHT22;42641;59.794;17.616;2023-01-09T06:24:53;5.10;99.90
56771;DHT22;42641;59.794;17.616;2023-01-09T06:27:20;5.20;99.90
56771;DHT22;42641;59.794;17.616;2023-01-09T06:29:46;5.20;99.90
56771;DHT22;42641;59.794;17.616;2023-01-09T06:32:12;5.20;99.90
56771;DHT22;42641;59.794;17.616;2023-01-09T06:34:39;5.10;99.90
56771;DHT22;42641;59.794;17.616;2023-01-09T06:37:05;5.10;99.90
56771;DHT22;42641;59.794;17.616;2023-01-09T06:39:31;5.10;99.90
56771;DHT22;42641;59.794;17.616;2023-01-09T06:41:58;5.20;99.90
56771;DHT22;42641;59.794;17.616;2023-01-09T06:44:24;5.20;99.90
56771;DHT22;42641;59.794;17.616;2023-01-09T06:46:51;5.10;99.90
56771;DHT22;42641;59.794;17.616;2023-01-09T06:49:17;5.10;99.90
56771;DHT22;42641;59.794;17.616;2023-01-09T06:51:49;5.10;99.90
56771;DHT22;42641;59.794;17.616;2023-01-09T06:54:19;5.10;99.90
56771;DHT22;42641;59.794;17.616;2023-01-09T06:56:46;5.20;99.90
56771;DHT22;42641;59.794;17.616;2023-01-09T06:59:12;5.10;99.90
56771;DHT22;42641;59.794;17.616;2023-01-09T07:01:39;5.10;99.90
56771;DHT22;42641;59.794;17.616;2023-01-09T07:04:06;5.10;99.90
56771;DHT22;42641;59.794;17.616;2023-01-09T07:06:34;5.10;99.90
56771;DHT22;42641;59.794;17.616;2023-01-09T07:09:00;5.10;99.90
56771;DHT22;42641;59.794;17.616;2023-01-09T07:11:27;5.20;99.90
56771;DHT22;42641;59.794;17.616;2023-01-09T07:13:53;5.30;99.90
56771;DHT22;42641;59.794;17.616;2023-01-09T07:16:19;5.30;99.90
56771;DHT22;42641;59.794;17.616;2023-01-09T07:18:46;5.40;99.90
56771;DHT22;42641;59.794;17.616;2023-01-09T07:21:12;5.30;99.90
56771;DHT22;42641;59.794;17.616;2023-01-09T07:23:38;5.30;99.90
56771;DHT22;42641;59.794;17.616;2023-01-09T07:26:05;5.30;99.90
56771;DHT22;42641;59.794;17.616;2023-01-09T07:28:31;5.40;99.90
56771;DHT22;42641;59.794;17.616;2023-01-09T07:30:58;5.40;99.90
56771;DHT22;42641;59.794;17.616;2023-01-09T07:33:27;5.40;99.90
56771;DHT22;42641;59.794;17.616;2023-01-09T07:35:53;5.40;99.90
56771;DHT22;42641;59.794;17.616;2023-01-09T07:38:20;5.30;99.90
56771;DHT22;42641;59.794;17.616;2023-01-09T07:40:46;5.30;99.90
56771;DHT22;42641;59.794;17.616;2023-01-09T07:43:13;5.30;99.90
56771;DHT22;42641;59.794;17.616;2023-01-09T07:45:39;5.20;99.90
56771;DHT22;42641;59.794;17.616;2023-01-09T07:48:06;5.10;99.90
56771;DHT22;42641;59.794;17.616;2023-01-09T07:50:32;5.10;99.90
56771;DHT22;42641;59.794;17.616;2023-01-09T07:52:59;5.10;99.90
56771;DHT22;42641;59.794;17.616;2023-01-09T07:55:25;5.20;99.90
56771;DHT22;42641;59.794;17.616;2023-01-09T07:57:51;5.20;99.90
56771;DHT22;42641;59.794;17.616;2023-01-09T08:00:18;5.20;99.90
56771;DHT22;42641;59.794;17.616;2023-01-09T08:02:53;5.10;99.90
56771;DHT22;42641;59.794;17.616;2023-01-09T08:05:20;5.00;99.90
56771;DHT22;42641;59.794;17.616;2023-01-09T08:07:46;5.00;99.90
56771;DHT22;42641;59.794;17.616;2023-01-09T08:10:15;5.00;99.90
56771;DHT22;42641;59.794;17.616;2023-01-09T08:12:46;5.00;99.90
56771;DHT22;42641;59.794;17.616;2023-01-09T08:15:13;5.00;99.90
56771;DHT22;42641;59.794;17.616;2023-01-09T08:17:41;5.10;99.90
56771;DHT22;42641;59.794;17.616;2023-01-09T08:20:09;5.10;99.90
56771;DHT22;42641;59.794;17.616;2023-01-09T08:22:38;5.10;99.90
56771;DHT22;42641;59.794;17.616;2023-01-09T08:25:06;5.10;99.90
56771;DHT22;42641;59.794;17.616;2023-01-09T08:27:33;5.20;99.90
56771;DHT22;42641;59.794;17.616;2023-01-09T08:29:59;5.20;99.90
56771;DHT22;42641;59.794;17.616;2023-01-09T08:32:25;5.20;99.90
56771;DHT22;42641;59.794;17.616;2023-01-09T08:34:52;5.30;99.90
56771;DHT22;42641;59.794;17.616;2023-01-09T08:37:18;5.30;99.90
56771;DHT22;42641;59.794;17.616;2023-01-09T08:39:44;5.30;99.90
56771;DHT22;42641;59.794;17.616;2023-01-09T08:42:11;5.20;99.90
56771;DHT22;42641;59.794;17.616;2023-01-09T08:44:56;5.20;99.90
56771;DHT22;42641;59.794;17.616;2023-01-09T08:47:40;5.20;99.90
56771;DHT22;42641;59.794;17.616;2023-01-09T08:50:07;5.30;99.90
56771;DHT22;42641;59.794;17.616;2023-01-09T08:52:34;5.30;99.90
56771;DHT22;42641;59.794;17.616;2023-01-09T08:55:00;5.40;99.90
56771;DHT22;42641;59.794;17.616;2023-01-09T08:57:26;5.40;99.90
56771;DHT22;42641;59.794;17.616;2023-01-09T08:59:53;5.50;99.90
56771;DHT22;42641;59.794;17.616;2023-01-09T09:02:19;5.40;99.90
56771;DHT22;42641;59.794;17.616;2023-01-09T09:04:45;5.30;99.90
56771;DHT22;42641;59.794;17.616;2023-01-09T09:07:13;5.40;99.90
56771;DHT22;42641;59.794;17.616;2023-01-09T09:09:39;5.40;99.90
56771;DHT22;42641;59.794;17.616;2023-01-09T09:12:06;5.40;99.90
56771;DHT22;42641;59.794;17.616;2023-01-09T09:14:33;5.50;99.90
56771;DHT22;42641;59.794;17.616;2023-01-09T09:17:17;5.50;99.90
56771;DHT22;42641;59.794;17.616;2023-01-09T09:19:44;5.60;99.90
56771;DHT22;42641;59.794;17.616;2023-01-09T09:22:10;5.60;99.90
56771;DHT22;42641;59.794;17.616;2023-01-09T09:24:37;5.70;99.90
56771;DHT22;42641;59.794;17.616;2023-01-09T09:27:04;5.70;99.90
56771;DHT22;42641;59.794;17.616;2023-01-09T09:29:30;5.70;99.90
56771;DHT22;42641;59.794;17.616;2023-01-09T09:31:56;5.60;99.90
56771;DHT22;42641;59.794;17.616;2023-01-09T09:34:23;5.60;99.90
56771;DHT22;42641;59.794;17.616;2023-01-09T09:36:49;5.60;99.90
56771;DHT22;42641;59.794;17.616;2023-01-09T09:39:16;5.60;99.90
56771;DHT22;42641;59.794;17.616;2023-01-09T09:45:15;5.70;99.90
56771;DHT22;42641;59.794;17.616;2023-01-09T09:48:07;5.70;99.90
56771;DHT22;42641;59.794;17.616;2023-01-09T09:53:44;5.70;99.90
56771;DHT22;42641;59.794;17.616;2023-01-09T09:56:14;5.70;99.90
56771;DHT22;42641;59.794;17.616;2023-01-09T09:58:53;5.70;99.90
56771;DHT22;42641;59.794;17.616;2023-01-09T10:01:26;5.70;99.90
56771;DHT22;42641;59.794;17.616;2023-01-09T10:03:59;5.70;99.90
56771;DHT22;42641;59.794;17.616;2023-01-09T10:06:28;5.80;99.90
56771;DHT22;42641;59.794;17.616;2023-01-09T10:09:07;5.80;99.90
56771;DHT22;42641;59.794;17.616;2023-01-09T10:12:07;5.90;99.90
56771;DHT22;42641;59.794;17.616;2023-01-09T10:14:36;5.90;99.90
56771;DHT22;42641;59.794;17.616;2023-01-09T10:17:20;5.90;99.90
56771;DHT22;42641;59.794;17.616;2023-01-09T10:25:34;5.80;99.90
56771;DHT22;42641;59.794;17.616;2023-01-09T10:28:21;5.80;99.90
56771;DHT22;42641;59.794;17.616;2023-01-09T10:34:40;5.80;99.90
56771;DHT22;42641;59.794;17.616;2023-01-09T10:37:30;5.90;99.90
56771;DHT22;42641;59.794;17.616;2023-01-09T10:39:51;5.90;99.90
56771;DHT22;42641;59.794;17.616;2023-01-09T10:42:35;5.80;99.90
56771;DHT22;42641;59.794;17.616;2023-01-09T10:47:34;5.80;99.90
56771;DHT22;42641;59.794;17.616;2023-01-09T10:50:23;5.90;99.90
56771;DHT22;42641;59.794;17.616;2023-01-09T10:52:52;5.90;99.90
56771;DHT22;42641;59.794;17.616;2023-01-09T10:55:28;5.90;99.90
56771;DHT22;42641;59.794;17.616;2023-01-09T10:58:01;6.00;99.90
56771;DHT22;42641;59.794;17.616;2023-01-09T11:00:27;6.10;99.90
56771;DHT22;42641;59.794;17.616;2023-01-09T11:02:54;6.10;99.90
56771;DHT22;42641;59.794;17.616;2023-01-09T11:05:30;6.10;99.90
56771;DHT22;42641;59.794;17.616;2023-01-09T11:10:59;6.10;99.90
56771;DHT22;42641;59.794;17.616;2023-01-09T11:13:31;6.10;99.90
56771;DHT22;42641;59.794;17.616;2023-01-09T11:16:04;6.10;99.90
56771;DHT22;42641;59.794;17.616;2023-01-09T11:18:33;6.10;99.90
56771;DHT22;42641;59.794;17.616;2023-01-09T11:21:24;6.10;99.90
56771;DHT22;42641;59.794;17.616;2023-01-09T11:23:54;6.00;99.90
56771;DHT22;42641;59.794;17.616;2023-01-09T11:26:26;6.00;99.90
56771;DHT22;42641;59.794;17.616;2023-01-09T11:29:05;6.00;99.90
56771;DHT22;42641;59.794;17.616;2023-01-09T11:31:32;5.90;99.90
56771;DHT22;42641;59.794;17.616;2023-01-09T11:33:59;5.90;99.90
56771;DHT22;42641;59.794;17.616;2023-01-09T11:36:26;5.90;99.90
56771;DHT22;42641;59.794;17.616;2023-01-09T11:38:54;6.00;99.90
56771;DHT22;42641;59.794;17.616;2023-01-09T11:41:42;6.00;99.90
56771;DHT22;42641;59.794;17.616;2023-01-09T11:44:14;6.00;99.90
56771;DHT22;42641;59.794;17.616;2023-01-09T11:46:41;6.00;99.90
56771;DHT22;42641;59.794;17.616;2023-01-09T11:49:22;6.00;99.90
56771;DHT22;42641;59.794;17.616;2023-01-09T11:52:15;6.00;99.90
56771;DHT22;42641;59.794;17.616;2023-01-09T11:54:52;5.90;99.90
56771;DHT22;42641;59.794;17.616;2023-01-09T11:57:22;5.90;99.90
56771;DHT22;42641;59.794;17.616;2023-01-09T11:59:49;5.90;99.90
56771;DHT22;42641;59.794;17.616;2023-01-09T12:02:37;5.90;99.90
56771;DHT22;42641;59.794;17.616;2023-01-09T12:05:47;5.90;99.90
56771;DHT22;42641;59.794;17.616;2023-01-09T12:11:18;5.90;99.90
56771;DHT22;42641;59.794;17.616;2023-01-09T12:13:57;5.90;99.90
56771;DHT22;42641;59.794;17.616;2023-01-09T12:23:19;6.00;99.90
56771;DHT22;42641;59.794;17.616;2023-01-09T12:25:53;5.90;99.90
56771;DHT22;42641;59.794;17.616;2023-01-09T12:37:03;6.00;99.90
56771;DHT22;42641;59.794;17.616;2023-01-09T12:42:46;6.00;99.90
56771;DHT22;42641;59.794;17.616;2023-01-09T12:53:31;6.10;99.90
56771;DHT22;42641;59.794;17.616;2023-01-09T12:56:14;6.10;99.90
56771;DHT22;42641;59.794;17.616;2023-01-09T12:58:48;6.20;99.90
56771;DHT22;42641;59.794;17.616;2023-01-09T13:01:27;6.20;99.90
56771;DHT22;42641;59.794;17.616;2023-01-09T13:07:00;6.20;99.90
56771;DHT22;42641;59.794;17.616;2023-01-09T13:09:47;6.20;99.90
56771;DHT22;42641;59.794;17.616;2023-01-09T13:12:16;6.30;99.90
56771;DHT22;42641;59.794;17.616;2023-01-09T13:17:42;6.20;99.90
56771;DHT22;42641;59.794;17.616;2023-01-09T13:22:48;6.20;99.90
56771;DHT22;42641;59.794;17.616;2023-01-09T13:28:04;6.30;99.90
56771;DHT22;42641;59.794;17.616;2023-01-09T13:30:55;6.30;99.90
56771;DHT22;42641;59.794;17.616;2023-01-09T13:33:29;6.20;99.90
56771;DHT22;42641;59.794;17.616;2023-01-09T13:35:58;6.20;99.90
56771;DHT22;42641;59.794;17.616;2023-01-09T13:38:27;6.20;99.90
56771;DHT22;42641;59.794;17.616;2023-01-09T13:41:12;6.20;99.90
56771;DHT22;42641;59.794;17.616;2023-01-09T13:46:47;6.30;99.90
56771;DHT22;42641;59.794;17.616;2023-01-09T13:55:02;6.20;99.90
56771;DHT22;42641;59.794;17.616;2023-01-09T13:57:34;6.20;99.90
56771;DHT22;42641;59.794;17.616;2023-01-09T14:05:14;6.20;99.90
56771;DHT22;42641;59.794;17.616;2023-01-09T14:07:44;6.20;99.90
56771;DHT22;42641;59.794;17.616;2023-01-09T14:10:24;6.20;99.90
56771;DHT22;42641;59.794;17.616;2023-01-09T14:12:53;6.20;99.90
56771;DHT22;42641;59.794;17.616;2023-01-09T14:15:29;6.10;99.90
56771;DHT22;42641;59.794;17.616;2023-01-09T14:18:02;6.10;99.90
56771;DHT22;42641;59.794;17.616;2023-01-09T14:20:42;6.10;99.90
56771;DHT22;42641;59.794;17.616;2023-01-09T14:23:22;6.10;99.90
56771;DHT22;42641;59.794;17.616;2023-01-09T14:25:52;6.10;99.90
56771;DHT22;42641;59.794;17.616;2023-01-09T14:28:24;6.00;99.90
56771;DHT22;42641;59.794;17.616;2023-01-09T14:35:58;5.90;99.90
56771;DHT22;42641;59.794;17.616;2023-01-09T14:38:47;5.90;99.90
56771;DHT22;42641;59.794;17.616;2023-01-09T14:44:00;5.90;99.90
56771;DHT22;42641;59.794;17.616;2023-01-09T14:46:32;5.90;99.90
56771;DHT22;42641;59.794;17.616;2023-01-09T14:49:15;5.80;99.90
56771;DHT22;42641;59.794;17.616;2023-01-09T14:51:46;5.80;99.90
56771;DHT22;42641;59.794;17.616;2023-01-09T14:54:29;5.80;99.90
56771;DHT22;42641;59.794;17.616;2023-01-09T14:56:56;5.80;99.90
56771;DHT22;42641;59.794;17.616;2023-01-09T14:59:23;5.80;99.90
56771;DHT22;42641;59.794;17.616;2023-01-09T15:01:50;5.90;99.90
56771;DHT22;42641;59.794;17.616;2023-01-09T15:04:30;5.80;99.90
56771;DHT22;42641;59.794;17.616;2023-01-09T15:07:01;5.80;99.90
56771;DHT22;42641;59.794;17.616;2023-01-09T15:09:35;5.80;99.90
56771;DHT22;42641;59.794;17.616;2023-01-09T15:12:05;5.80;99.90
56771;DHT22;42641;59.794;17.616;2023-01-09T15:14:39;5.80;99.90
56771;DHT22;42641;59.794;17.616;2023-01-09T15:17:19;5.80;99.90
56771;DHT22;42641;59.794;17.616;2023-01-09T15:19:47;5.80;99.90
56771;DHT22;42641;59.794;17.616;2023-01-09T15:24:56;5.80;99.90
56771;DHT22;42641;59.794;17.616;2023-01-09T15:27:22;5.80;99.90
56771;DHT22;42641;59.794;17.616;2023-01-09T15:29:50;5.80;99.90
56771;DHT22;42641;59.794;17.616;2023-01-09T15:32:28;5.80;99.90
56771;DHT22;42641;59.794;17.616;2023-01-09T15:34:55;5.80;99.90
56771;DHT22;42641;59.794;17.616;2023-01-09T15:37:32;5.80;99.90
56771;DHT22;42641;59.794;17.616;2023-01-09T15:40:00;5.80;99.90
56771;DHT22;42641;59.794;17.616;2023-01-09T15:42:31;5.90;99.90
56771;DHT22;42641;59.794;17.616;2023-01-09T15:45:34;5.80;99.90
56771;DHT22;42641;59.794;17.616;2023-01-09T15:48:29;5.80;99.90
56771;DHT22;42641;59.794;17.616;2023-01-09T15:53:28;5.80;99.90
56771;DHT22;42641;59.794;17.616;2023-01-09T15:56:14;5.80;99.90
56771;DHT22;42641;59.794;17.616;2023-01-09T15:58:43;5.80;99.90
56771;DHT22;42641;59.794;17.616;2023-01-09T16:01:29;5.70;99.90
56771;DHT22;42641;59.794;17.616;2023-01-09T16:06:45;5.70;99.90
56771;DHT22;42641;59.794;17.616;2023-01-09T16:09:17;5.70;99.90
56771;DHT22;42641;59.794;17.616;2023-01-09T16:11:51;5.70;99.90
56771;DHT22;42641;59.794;17.616;2023-01-09T16:14:25;5.70;99.90
56771;DHT22;42641;59.794;17.616;2023-01-09T16:17:01;5.60;99.90
56771;DHT22;42641;59.794;17.616;2023-01-09T16:22:28;5.70;99.90
56771;DHT22;42641;59.794;17.616;2023-01-09T16:25:00;5.70;99.90
56771;DHT22;42641;59.794;17.616;2023-01-09T16:27:30;5.70;99.90
56771;DHT22;42641;59.794;17.616;2023-01-09T16:30:00;5.70;99.90
56771;DHT22;42641;59.794;17.616;2023-01-09T16:32:34;5.70;99.90
56771;DHT22;42641;59.794;17.616;2023-01-09T16:35:05;5.70;99.90
56771;DHT22;42641;59.794;17.616;2023-01-09T16:37:32;5.70;99.90
56771;DHT22;42641;59.794;17.616;2023-01-09T16:42:44;5.70;99.90
56771;DHT22;42641;59.794;17.616;2023-01-09T16:45:39;5.70;99.90
56771;DHT22;42641;59.794;17.616;2023-01-09T16:48:15;5.70;99.90
56771;DHT22;42641;59.794;17.616;2023-01-09T16:50:42;5.70;99.90
56771;DHT22;42641;59.794;17.616;2023-01-09T16:53:22;5.70;99.90
56771;DHT22;42641;59.794;17.616;2023-01-09T16:55:50;5.70;99.90
56771;DHT22;42641;59.794;17.616;2023-01-09T16:58:23;5.70;99.90
56771;DHT22;42641;59.794;17.616;2023-01-09T17:00:49;5.70;99.90
56771;DHT22;42641;59.794;17.616;2023-01-09T17:03:16;5.70;99.90
56771;DHT22;42641;59.794;17.616;2023-01-09T17:05:57;5.70;99.90
56771;DHT22;42641;59.794;17.616;2023-01-09T17:08:29;5.60;99.90
56771;DHT22;42641;59.794;17.616;2023-01-09T17:10:56;5.60;99.90
56771;DHT22;42641;59.794;17.616;2023-01-09T17:13:24;5.60;99.90
56771;DHT22;42641;59.794;17.616;2023-01-09T17:15:55;5.60;99.90
56771;DHT22;42641;59.794;17.616;2023-01-09T17:18:23;5.60;99.90
56771;DHT22;42641;59.794;17.616;2023-01-09T17:20:55;5.60;99.90
56771;DHT22;42641;59.794;17.616;2023-01-09T17:23:23;5.60;99.90
56771;DHT22;42641;59.794;17.616;2023-01-09T17:25:55;5.60;99.90
56771;DHT22;42641;59.794;17.616;2023-01-09T17:28:48;5.60;99.90
56771;DHT22;42641;59.794;17.616;2023-01-09T17:31:16;5.60;99.90
56771;DHT22;42641;59.794;17.616;2023-01-09T17:33:42;5.60;99.90
56771;DHT22;42641;59.794;17.616;2023-01-09T17:38:47;5.50;99.90
56771;DHT22;42641;59.794;17.616;2023-01-09T17:41:21;5.50;99.90
56771;DHT22;42641;59.794;17.616;2023-01-09T17:43:48;5.50;99.90
56771;DHT22;42641;59.794;17.616;2023-01-09T17:46:17;5.50;99.90
56771;DHT22;42641;59.794;17.616;2023-01-09T17:48:44;5.50;99.90
56771;DHT22;42641;59.794;17.616;2023-01-09T17:51:11;5.50;99.90
56771;DHT22;42641;59.794;17.616;2023-01-09T17:53:37;5.50;99.90
56771;DHT22;42641;59.794;17.616;2023-01-09T17:56:04;5.50;99.90